createdAt,value
2023-05-14T00:07:26.261Z,63.10
2023-05-14T00:12:29.455Z,61.10
2023-05-14T00:17:31.861Z,60.50
2023-05-14T00:22:36.016Z,60.40
2023-05-14T00:27:38.476Z,60.70
2023-05-14T00:32:40.972Z,62.10
2023-05-14T00:37:44.867Z,61.80
2023-05-14T00:42:47.260Z,62.40
2023-05-14T00:47:50.231Z,61.90
2023-05-14T00:52:54.428Z,62.00
2023-05-14T00:57:59.690Z,62.80
2023-05-14T01:03:03.778Z,63.60
2023-05-14T01:08:22.641Z,62.80
2023-05-14T01:13:33.747Z,63.20
2023-05-14T01:18:37.005Z,63.50
2023-05-14T01:23:40.894Z,62.90
2023-05-14T01:28:54.015Z,63.10
2023-05-14T01:33:59.181Z,63.50
2023-05-14T01:39:04.169Z,63.80
2023-05-14T01:44:08.988Z,64.20
2023-05-14T01:49:11.486Z,64.50
2023-05-14T01:54:15.716Z,65.50
2023-05-14T01:59:18.167Z,67.30
2023-05-14T02:04:20.583Z,67.60
2023-05-14T02:09:24.714Z,67.30
2023-05-14T02:14:27.272Z,67.30
2023-05-14T02:19:30.027Z,67.30
2023-05-14T02:24:33.904Z,67.00
2023-05-14T02:29:36.634Z,67.90
2023-05-14T02:34:41.759Z,68.00
2023-05-14T02:39:45.641Z,68.20
2023-05-14T02:44:48.368Z,68.80
2023-05-14T02:49:50.977Z,67.90
2023-05-14T02:54:54.774Z,68.90
2023-05-14T02:59:57.271Z,69.50
2023-05-14T03:05:00.269Z,69.60
2023-05-14T03:10:08.685Z,69.40
2023-05-14T03:15:11.835Z,69.50
2023-05-14T03:20:17.044Z,69.30
2023-05-14T03:25:20.985Z,70.30
2023-05-14T03:30:23.692Z,71.50
2023-05-14T03:35:26.581Z,70.60
2023-05-14T03:40:30.835Z,70.40
2023-05-14T03:45:33.924Z,71.40
2023-05-14T03:50:36.928Z,70.90
2023-05-14T03:55:41.015Z,71.20
2023-05-14T04:00:46.953Z,70.80
2023-05-14T04:05:49.514Z,70.80
2023-05-14T04:10:53.450Z,71.30
2023-05-14T04:15:58.685Z,72.00
2023-05-14T04:21:01.607Z,72.00
2023-05-14T04:26:05.696Z,71.70
2023-05-14T04:31:12.568Z,71.40
2023-05-14T04:36:15.477Z,70.60
2023-05-14T04:41:22.340Z,71.70
2023-05-14T04:46:28.038Z,72.20
2023-05-14T04:51:30.667Z,71.60
2023-05-14T04:56:34.664Z,72.00
2023-05-14T05:01:37.348Z,71.40
2023-05-14T05:06:40.008Z,71.00
2023-05-14T05:11:44.138Z,69.90
2023-05-14T05:16:46.724Z,69.60
2023-05-14T05:21:49.594Z,68.00
2023-05-14T05:26:53.667Z,68.30
2023-05-14T05:31:56.280Z,67.20
2023-05-14T05:36:58.857Z,66.30
2023-05-14T05:42:03.054Z,65.80
2023-05-14T05:47:08.738Z,66.40
2023-05-14T05:52:11.404Z,68.40
2023-05-14T05:57:15.320Z,69.00
2023-05-14T06:02:17.882Z,68.10
2023-05-14T06:07:22.970Z,65.80
2023-05-14T06:12:27.038Z,66.40
2023-05-14T06:17:32.474Z,68.80
2023-05-14T06:22:37.831Z,68.50
2023-05-14T06:27:44.575Z,67.40
2023-05-14T06:32:47.166Z,68.00
2023-05-14T06:37:49.688Z,67.70
2023-05-14T06:42:56.932Z,66.10
2023-05-14T06:48:00.122Z,64.10
2023-05-14T06:53:02.782Z,61.60
2023-05-14T06:58:08.362Z,60.10
2023-05-14T07:03:10.875Z,60.10
2023-05-14T07:08:13.565Z,59.50
2023-05-14T07:13:17.400Z,57.60
2023-05-14T07:18:19.769Z,58.50
2023-05-14T07:23:22.301Z,56.30
2023-05-14T07:28:26.126Z,56.90
2023-05-14T07:33:28.550Z,56.50
2023-05-14T07:38:32.192Z,55.00
2023-05-14T07:43:35.980Z,55.00
2023-05-14T07:48:38.382Z,51.70
2023-05-14T07:53:40.975Z,51.60
2023-05-14T07:58:47.825Z,51.40
2023-05-14T08:03:50.456Z,49.80
2023-05-14T08:08:52.908Z,50.80
2023-05-14T08:13:56.690Z,49.80
2023-05-14T08:18:59.248Z,49.60
2023-05-14T08:24:01.701Z,49.70
2023-05-14T08:29:05.637Z,49.80
2023-05-14T08:34:08.143Z,49.00
2023-05-14T08:39:10.546Z,49.00
2023-05-14T08:44:19.289Z,48.30
2023-05-14T08:49:38.939Z,47.80
2023-05-14T08:54:41.496Z,47.80
2023-05-14T08:59:48.357Z,47.80
2023-05-14T09:04:55.184Z,46.30
2023-05-14T09:09:57.827Z,44.80
2023-05-14T09:15:05.727Z,42.20
2023-05-14T09:20:12.388Z,43.20
2023-05-14T09:25:14.857Z,41.60
2023-05-14T09:30:18.928Z,39.70
2023-05-14T09:35:24.981Z,40.10
2023-05-14T09:40:27.785Z,39.90
2023-05-14T09:45:41.578Z,39.00
2023-05-14T09:50:53.645Z,37.30
2023-05-14T09:55:56.136Z,39.20
2023-05-14T10:01:01.829Z,37.00
2023-05-14T10:06:06.880Z,35.80
2023-05-14T10:11:18.757Z,36.10
2023-05-14T10:16:33.217Z,36.00
2023-05-14T10:21:38.919Z,35.40
2023-05-14T10:26:42.549Z,34.30
2023-05-14T10:31:51.776Z,34.30
2023-05-14T10:36:54.269Z,34.50
2023-05-14T10:41:57.359Z,34.50
2023-05-14T10:47:01.788Z,35.10
2023-05-14T10:52:07.384Z,34.40
2023-05-14T10:57:12.259Z,35.10
2023-05-14T11:02:26.325Z,35.10
2023-05-14T11:07:31.493Z,35.10
2023-05-14T11:12:35.837Z,33.80
2023-05-14T11:17:42.669Z,34.50
2023-05-14T11:22:47.117Z,35.00
2023-05-14T11:27:51.437Z,34.20
2023-05-14T11:32:56.614Z,33.60
2023-05-14T11:37:59.185Z,33.60
2023-05-14T11:43:01.885Z,33.90
2023-05-14T11:48:13.771Z,33.20
2023-05-14T11:53:20.126Z,32.50
2023-05-14T11:58:22.863Z,33.20
2023-05-14T12:03:27.180Z,33.40
2023-05-14T12:08:31.947Z,33.40
2023-05-14T12:13:36.316Z,34.40
2023-05-14T12:18:40.437Z,34.10
2023-05-14T12:23:42.959Z,33.50
2023-05-14T12:28:48.275Z,33.50
2023-05-14T12:33:52.212Z,34.10
2023-05-14T12:39:03.000Z,34.00
2023-05-14T12:44:05.895Z,33.80
2023-05-14T12:49:10.146Z,34.20
2023-05-14T12:54:12.651Z,34.30
2023-05-14T12:59:15.293Z,34.20
2023-05-14T13:04:19.351Z,34.00
2023-05-14T13:09:22.152Z,33.80
2023-05-14T13:14:27.412Z,33.20
2023-05-14T13:19:31.421Z,33.30
2023-05-14T13:24:35.866Z,33.50
2023-05-14T13:29:38.364Z,33.60
2023-05-14T13:34:42.265Z,33.90
2023-05-14T13:39:44.821Z,34.10
2023-05-14T13:44:47.304Z,34.10
2023-05-14T13:49:52.162Z,34.40
2023-05-14T13:54:54.553Z,34.20
2023-05-14T13:59:59.704Z,34.60
2023-05-14T14:05:03.716Z,34.40
2023-05-14T14:10:10.355Z,34.90
2023-05-14T14:15:12.792Z,34.90
2023-05-14T14:20:16.772Z,34.80
2023-05-14T14:25:19.223Z,34.60
2023-05-14T14:30:21.629Z,35.10
2023-05-14T14:35:25.894Z,35.20
2023-05-14T14:40:28.489Z,35.20
2023-05-14T14:45:33.835Z,35.30
2023-05-14T14:50:38.021Z,35.40
2023-05-14T14:55:40.478Z,34.70
2023-05-14T15:00:46.206Z,34.80
2023-05-14T15:05:50.605Z,34.80
2023-05-14T15:10:53.301Z,35.00
2023-05-14T15:15:55.816Z,34.90
2023-05-14T15:20:59.711Z,34.50
2023-05-14T15:26:05.355Z,34.40
2023-05-14T15:31:08.026Z,34.50
2023-05-14T15:36:12.567Z,34.60
2023-05-14T15:41:15.880Z,34.80
2023-05-14T15:46:18.567Z,34.60
2023-05-14T15:51:22.449Z,34.40
2023-05-14T15:56:25.027Z,34.30
2023-05-14T16:01:27.537Z,34.50
2023-05-14T16:06:31.471Z,34.60
2023-05-14T16:11:33.985Z,34.60
2023-05-14T16:16:37.378Z,34.70
2023-05-14T16:21:41.306Z,34.60
2023-05-14T16:26:46.745Z,34.80
2023-05-14T16:31:49.263Z,34.80
2023-05-14T16:36:53.758Z,35.00
2023-05-14T16:41:56.242Z,35.00
2023-05-14T16:46:58.671Z,35.10
2023-05-14T16:52:02.446Z,35.20
2023-05-14T16:57:05.893Z,35.50
2023-05-14T17:02:08.462Z,36.00
2023-05-14T17:07:15.105Z,36.30
2023-05-14T17:12:17.460Z,36.60
2023-05-14T17:17:19.928Z,37.00
2023-05-14T17:22:26.534Z,37.20
2023-05-14T17:27:29.129Z,37.70
2023-05-14T17:32:31.806Z,37.70
2023-05-14T17:37:36.138Z,38.00
2023-05-14T17:42:38.579Z,38.50
2023-05-14T17:47:41.243Z,38.60
2023-05-14T17:52:48.244Z,38.90
2023-05-14T17:57:53.606Z,39.10
2023-05-14T18:02:56.116Z,39.90
2023-05-14T18:08:02.777Z,39.70
2023-05-14T18:13:05.181Z,39.90
2023-05-14T18:18:08.148Z,40.00
2023-05-14T18:23:14.886Z,40.10
2023-05-14T18:28:17.408Z,40.30
2023-05-14T18:33:19.845Z,40.40
2023-05-14T18:38:26.144Z,40.60
2023-05-14T18:43:28.521Z,40.80
2023-05-14T18:48:31.581Z,40.80
2023-05-14T18:53:35.341Z,41.00
2023-05-14T18:58:37.744Z,41.20
2023-05-14T19:03:40.406Z,41.30
2023-05-14T19:08:44.632Z,41.50
2023-05-14T19:13:47.105Z,41.80
2023-05-14T19:18:49.768Z,42.00
2023-05-14T19:23:54.180Z,42.30
2023-05-14T19:28:57.343Z,42.90
2023-05-14T19:33:59.777Z,43.10
2023-05-14T19:39:04.094Z,43.50
2023-05-14T19:44:06.541Z,43.80
2023-05-14T19:49:09.244Z,44.00
2023-05-14T19:54:13.117Z,44.10
2023-05-14T19:59:15.787Z,44.30
2023-05-14T20:04:18.153Z,44.70
2023-05-14T20:09:22.036Z,45.30
2023-05-14T20:14:24.419Z,46.00
2023-05-14T20:19:26.781Z,46.20
2023-05-14T20:24:31.016Z,46.60
2023-05-14T20:29:33.497Z,47.10
2023-05-14T20:34:36.070Z,46.90
2023-05-14T20:39:42.430Z,47.50
2023-05-14T20:44:44.822Z,48.00
2023-05-14T20:49:47.704Z,48.30
2023-05-14T20:54:51.766Z,48.40
2023-05-14T20:59:54.310Z,48.70
2023-05-14T21:04:56.751Z,49.40
2023-05-14T21:10:00.614Z,49.70
2023-05-14T21:15:06.040Z,49.90
2023-05-14T21:20:09.890Z,50.40
2023-05-14T21:25:13.730Z,50.80
2023-05-14T21:30:16.527Z,51.40
2023-05-14T21:35:18.944Z,51.70
2023-05-14T21:40:23.245Z,51.40
2023-05-14T21:45:28.972Z,52.10
2023-05-14T21:50:31.610Z,52.20
2023-05-14T21:55:35.857Z,52.00
2023-05-14T22:00:38.549Z,53.40
2023-05-14T22:05:41.052Z,54.60
2023-05-14T22:10:46.539Z,55.50
2023-05-14T22:15:51.299Z,54.80
2023-05-14T22:20:57.314Z,55.90
2023-05-14T22:26:01.157Z,56.20
2023-05-14T22:31:03.666Z,55.50
2023-05-14T22:36:07.236Z,55.70
2023-05-14T22:41:11.075Z,56.00
2023-05-14T22:46:13.582Z,55.60
2023-05-14T22:51:16.055Z,55.40
2023-05-14T22:56:19.959Z,55.40
2023-05-14T23:01:22.338Z,55.60
2023-05-14T23:06:25.595Z,55.70
2023-05-14T23:11:29.380Z,55.30
2023-05-14T23:16:35.044Z,55.70
2023-05-14T23:21:37.448Z,56.20
2023-05-14T23:26:41.782Z,56.40
2023-05-14T23:31:44.388Z,57.00
2023-05-14T23:36:50.042Z,56.70
2023-05-14T23:41:53.855Z,56.70
2023-05-14T23:46:56.346Z,56.90
2023-05-14T23:52:01.502Z,57.00
2023-05-14T23:57:06.092Z,56.90
